createdAt,value
2022-09-06T00:01:16.273Z,8.29
2022-09-06T00:03:45.222Z,8.26
2022-09-06T00:06:19.853Z,8.15
2022-09-06T00:08:49.280Z,8.09
2022-09-06T00:11:18.176Z,8.07
2022-09-06T00:13:46.525Z,7.96
2022-09-06T00:16:19.841Z,8.15
2022-09-06T00:18:47.759Z,8.11
2022-09-06T00:21:27.764Z,7.97
2022-09-06T00:23:56.249Z,7.89
2022-09-06T00:26:24.392Z,7.87
2022-09-06T00:28:52.242Z,7.77
2022-09-06T00:31:24.641Z,7.82
2022-09-06T00:33:53.400Z,7.85
2022-09-06T00:36:22.480Z,7.84
2022-09-06T00:38:50.253Z,8.02
2022-09-06T00:41:18.346Z,7.99
2022-09-06T00:43:46.238Z,7.78
2022-09-06T00:46:26.897Z,7.74
2022-09-06T00:49:03.534Z,7.64
2022-09-06T00:51:35.658Z,7.68
2022-09-06T00:54:09.211Z,7.77
2022-09-06T00:56:42.089Z,7.80
2022-09-06T00:59:10.337Z,7.59
2022-09-06T01:01:38.080Z,7.59
2022-09-06T01:04:06.217Z,7.54
2022-09-06T01:06:59.379Z,7.74
2022-09-06T01:09:56.006Z,7.65
2022-09-06T01:12:31.660Z,7.55
2022-09-06T01:15:33.270Z,7.52
2022-09-06T01:18:01.311Z,7.61
2022-09-06T01:20:57.071Z,7.45
2022-09-06T01:24:01.913Z,7.44
2022-09-06T01:26:41.400Z,7.42
2022-09-06T01:29:32.937Z,7.49
2022-09-06T01:32:15.995Z,7.52
2022-09-06T01:34:50.956Z,7.69
2022-09-06T01:37:20.469Z,7.75
2022-09-06T01:39:48.545Z,7.72
2022-09-06T01:42:27.490Z,7.72
2022-09-06T01:45:11.141Z,7.63
2022-09-06T01:47:59.141Z,7.51
2022-09-06T01:50:38.868Z,7.45
2022-09-06T01:53:25.546Z,7.46
2022-09-06T01:56:45.662Z,7.54
2022-09-06T01:59:22.195Z,7.48
2022-09-06T02:02:22.298Z,7.59
2022-09-06T02:05:06.506Z,7.54
2022-09-06T02:07:35.540Z,7.64
2022-09-06T02:10:27.649Z,7.69
2022-09-06T02:13:01.368Z,7.57
2022-09-06T02:15:42.639Z,7.54
2022-09-06T02:18:19.027Z,7.78
2022-09-06T02:20:52.366Z,7.95
2022-09-06T02:23:23.612Z,7.87
2022-09-06T02:26:00.421Z,7.93
2022-09-06T02:28:28.904Z,7.98
2022-09-06T02:31:02.289Z,8.12
2022-09-06T02:33:33.440Z,8.32
2022-09-06T02:36:07.011Z,8.40
2022-09-06T02:38:37.791Z,8.45
2022-09-06T02:41:06.637Z,8.46
2022-09-06T02:43:34.358Z,8.51
2022-09-06T02:46:02.634Z,8.45
2022-09-06T02:48:30.413Z,8.30
2022-09-06T02:51:01.992Z,8.27
2022-09-06T02:53:29.994Z,8.25
2022-09-06T02:55:58.175Z,8.25
2022-09-06T02:58:26.256Z,8.22
2022-09-06T03:00:54.332Z,8.21
2022-09-06T03:03:22.703Z,8.41
2022-09-06T03:05:52.665Z,8.47
2022-09-06T03:08:23.048Z,8.43
2022-09-06T03:10:52.541Z,8.53
2022-09-06T03:13:20.782Z,8.56
2022-09-06T03:15:59.903Z,8.62
2022-09-06T03:18:30.544Z,8.67
2022-09-06T03:20:58.873Z,8.85
2022-09-06T03:23:28.942Z,8.80
2022-09-06T03:25:57.165Z,8.81
2022-09-06T03:28:25.898Z,8.83
2022-09-06T03:30:53.779Z,8.79
2022-09-06T03:33:22.011Z,8.72
2022-09-06T03:35:56.685Z,8.76
2022-09-06T03:38:26.280Z,9.11
2022-09-06T03:40:54.730Z,9.11
2022-09-06T03:43:24.722Z,9.03
2022-09-06T03:45:55.149Z,8.98
2022-09-06T03:48:26.029Z,8.93
2022-09-06T03:50:56.825Z,9.02
2022-09-06T03:53:26.202Z,8.96
2022-09-06T03:55:56.203Z,8.97
2022-09-06T03:58:25.120Z,8.82
2022-09-06T04:01:08.081Z,8.88
2022-09-06T04:03:36.505Z,8.83
2022-09-06T04:06:05.497Z,8.77
2022-09-06T04:08:35.642Z,8.71
2022-09-06T04:11:04.416Z,8.81
2022-09-06T04:13:34.036Z,8.97
2022-09-06T04:16:02.115Z,8.99
2022-09-06T04:18:30.233Z,8.76
2022-09-06T04:20:58.351Z,8.70
2022-09-06T04:23:28.218Z,8.63
2022-09-06T04:25:58.631Z,8.59
2022-09-06T04:28:27.178Z,8.47
2022-09-06T04:31:04.845Z,8.61
2022-09-06T04:33:35.813Z,8.72
2022-09-06T04:36:06.225Z,8.76
2022-09-06T04:38:42.373Z,8.79
2022-09-06T04:41:12.745Z,8.84
2022-09-06T04:43:41.059Z,8.81
2022-09-06T04:46:27.174Z,8.87
2022-09-06T04:48:56.268Z,8.91
2022-09-06T04:51:25.326Z,9.05
2022-09-06T04:53:53.930Z,9.06
2022-09-06T04:56:24.199Z,9.06
2022-09-06T04:58:54.162Z,9.25
2022-09-06T05:01:22.663Z,9.45
2022-09-06T05:03:53.964Z,9.75
2022-09-06T05:06:25.377Z,9.77
2022-09-06T05:08:53.340Z,10.17
2022-09-06T05:11:21.497Z,10.06
2022-09-06T05:13:50.358Z,10.30
2022-09-06T05:16:18.980Z,10.31
2022-09-06T05:18:46.898Z,10.46
2022-09-06T05:21:15.913Z,10.56
2022-09-06T05:23:44.160Z,10.49
2022-09-06T05:26:11.967Z,10.52
2022-09-06T05:28:40.078Z,10.63
2022-09-06T05:31:29.281Z,10.82
2022-09-06T05:33:57.929Z,10.87
2022-09-06T05:36:27.741Z,10.97
2022-09-06T05:38:56.626Z,11.10
2022-09-06T05:41:25.268Z,11.20
2022-09-06T05:43:53.240Z,11.29
2022-09-06T05:46:21.244Z,11.47
2022-09-06T05:48:56.336Z,11.54
2022-09-06T05:51:24.670Z,11.81
2022-09-06T05:53:52.577Z,11.95
2022-09-06T05:56:20.736Z,11.90
2022-09-06T05:58:48.732Z,12.02
2022-09-06T06:01:22.726Z,12.00
2022-09-06T06:03:52.002Z,12.14
2022-09-06T06:06:20.746Z,12.39
2022-09-06T06:08:48.607Z,12.58
2022-09-06T06:11:17.558Z,12.69
2022-09-06T06:13:45.891Z,12.97
2022-09-06T06:16:16.454Z,13.19
2022-09-06T06:18:51.701Z,13.43
2022-09-06T06:21:23.577Z,13.51
2022-09-06T06:23:55.509Z,13.57
2022-09-06T06:26:23.755Z,13.57
2022-09-06T06:28:52.203Z,13.59
2022-09-06T06:31:22.575Z,13.68
2022-09-06T06:33:50.854Z,13.88
2022-09-06T06:36:18.545Z,14.16
2022-09-06T06:38:47.861Z,14.11
2022-09-06T06:41:18.277Z,14.13
2022-09-06T06:43:46.257Z,14.12
2022-09-06T06:46:16.751Z,14.10
2022-09-06T06:48:46.138Z,14.12
2022-09-06T06:51:19.097Z,14.16
2022-09-06T06:53:48.184Z,14.22
2022-09-06T06:56:20.346Z,14.33
2022-09-06T06:58:50.534Z,14.43
2022-09-06T07:01:23.029Z,14.51
2022-09-06T07:03:51.388Z,14.67
2022-09-06T07:06:21.285Z,14.88
2022-09-06T07:08:49.485Z,14.91
2022-09-06T07:11:21.591Z,15.06
2022-09-06T07:13:52.163Z,15.19
2022-09-06T07:18:54.476Z,15.55
2022-09-06T07:21:42.176Z,15.55
2022-09-06T07:24:10.663Z,15.57
2022-09-06T07:26:40.313Z,15.65
2022-09-06T07:29:09.311Z,15.76
2022-09-06T07:34:27.134Z,15.86
2022-09-06T07:36:56.182Z,16.04
2022-09-06T07:39:24.380Z,17.00
2022-09-06T07:41:52.457Z,19.91
2022-09-06T07:44:20.168Z,23.17
2022-09-06T07:46:47.953Z,25.83
2022-09-06T07:49:15.927Z,28.01
2022-09-06T07:51:44.645Z,29.61
2022-09-06T07:54:30.104Z,30.66
2022-09-06T07:56:58.864Z,31.56
2022-09-06T07:59:27.931Z,33.10
2022-09-06T08:01:55.739Z,33.86
2022-09-06T08:04:23.904Z,34.02
2022-09-06T08:09:41.032Z,35.06
2022-09-06T08:12:09.128Z,35.42
2022-09-06T08:14:37.133Z,35.79
2022-09-06T08:17:05.376Z,35.52
2022-09-06T08:19:34.458Z,35.88
2022-09-06T08:22:02.395Z,36.04
2022-09-06T08:24:30.533Z,36.57
2022-09-06T08:26:58.293Z,36.36
2022-09-06T08:29:27.435Z,35.90
2022-09-06T08:31:55.453Z,35.77
2022-09-06T08:34:23.347Z,36.01
2022-09-06T08:36:51.228Z,35.69
2022-09-06T08:39:19.380Z,35.98
2022-09-06T08:42:05.300Z,36.28
2022-09-06T08:44:55.194Z,36.71
2022-09-06T08:47:23.985Z,36.62
2022-09-06T08:49:56.668Z,36.68
2022-09-06T08:56:20.491Z,35.90
2022-09-06T08:59:12.321Z,36.29
2022-09-06T09:01:44.067Z,36.88
2022-09-06T09:04:18.408Z,37.25
2022-09-06T09:06:50.830Z,35.52
2022-09-06T09:09:18.623Z,35.45
2022-09-06T09:11:50.939Z,35.74
2022-09-06T09:14:25.941Z,35.64
2022-09-06T09:17:02.568Z,35.55
2022-09-06T09:19:33.563Z,35.71
2022-09-06T09:22:02.049Z,35.86
2022-09-06T09:24:31.436Z,35.09
2022-09-06T09:27:10.688Z,34.35
2022-09-06T09:32:47.937Z,34.38
2022-09-06T09:35:40.989Z,34.50
2022-09-06T09:38:20.833Z,34.24
2022-09-06T09:40:55.070Z,34.34
2022-09-06T09:43:31.359Z,33.92
2022-09-06T09:46:22.117Z,33.97
2022-09-06T09:49:12.440Z,34.41
2022-09-06T09:51:46.270Z,34.21
2022-09-06T09:54:30.043Z,33.69
2022-09-06T09:56:58.493Z,33.58
2022-09-06T09:59:27.819Z,33.17
2022-09-06T10:02:01.619Z,32.83
2022-09-06T10:04:54.070Z,32.99
2022-09-06T10:07:24.105Z,32.90
2022-09-06T10:10:11.063Z,32.58
2022-09-06T10:12:40.677Z,32.18
2022-09-06T10:15:11.880Z,31.75
2022-09-06T10:17:50.290Z,30.35
2022-09-06T10:20:18.987Z,28.31
2022-09-06T10:23:06.653Z,26.64
2022-09-06T10:25:39.269Z,25.15
2022-09-06T10:28:25.302Z,24.21
2022-09-06T10:30:59.501Z,23.55
2022-09-06T10:33:38.401Z,23.16
2022-09-06T10:36:07.750Z,22.76
2022-09-06T10:39:07.909Z,22.36
2022-09-06T10:41:53.448Z,22.03
2022-09-06T10:44:50.389Z,21.82
2022-09-06T10:47:19.274Z,21.56
2022-09-06T10:49:54.391Z,21.45
2022-09-06T10:52:38.477Z,21.18
2022-09-06T10:55:09.876Z,21.11
2022-09-06T11:00:42.831Z,21.11
2022-09-06T11:06:32.733Z,20.95
2022-09-06T11:09:16.966Z,20.90
2022-09-06T11:12:22.721Z,20.88
2022-09-06T11:14:51.861Z,20.78
2022-09-06T11:17:34.396Z,20.52
2022-09-06T11:20:14.004Z,20.51
2022-09-06T11:23:19.235Z,20.45
2022-09-06T11:26:00.921Z,20.64
2022-09-06T11:28:41.908Z,20.75
2022-09-06T11:34:14.060Z,20.75
2022-09-06T11:36:51.257Z,20.88
2022-09-06T11:42:47.843Z,20.80
2022-09-06T11:45:38.154Z,20.83
2022-09-06T11:48:24.415Z,20.95
2022-09-06T11:51:01.032Z,20.99
2022-09-06T11:53:48.715Z,20.96
2022-09-06T11:57:01.272Z,21.11
2022-09-06T12:00:01.034Z,21.09
2022-09-06T12:02:39.156Z,21.05
2022-09-06T12:05:09.765Z,21.04
2022-09-06T12:07:58.652Z,20.92
2022-09-06T12:10:42.049Z,20.85
2022-09-06T12:13:36.047Z,20.84
2022-09-06T12:16:04.084Z,20.96
2022-09-06T12:18:55.903Z,21.08
2022-09-06T12:21:43.035Z,21.22
2022-09-06T12:24:38.876Z,21.09
2022-09-06T12:27:19.517Z,21.11
2022-09-06T12:29:55.334Z,21.04
2022-09-06T12:32:28.276Z,21.13
2022-09-06T12:38:06.522Z,21.10
2022-09-06T12:40:46.662Z,21.00
2022-09-06T12:43:17.056Z,21.01
2022-09-06T12:45:50.841Z,21.17
2022-09-06T12:48:30.717Z,21.00
2022-09-06T12:51:20.917Z,20.88
2022-09-06T12:53:53.392Z,20.87
2022-09-06T12:56:24.183Z,20.88
2022-09-06T12:58:52.267Z,20.82
2022-09-06T13:01:27.690Z,20.92
2022-09-06T13:04:09.221Z,20.92
2022-09-06T13:06:42.260Z,20.89
2022-09-06T13:09:14.552Z,20.88
2022-09-06T13:11:48.960Z,20.92
2022-09-06T13:14:28.126Z,21.03
2022-09-06T13:17:00.048Z,20.98
2022-09-06T13:19:42.671Z,21.09
2022-09-06T13:22:11.617Z,21.14
2022-09-06T13:24:49.842Z,21.27
2022-09-06T13:27:30.957Z,20.98
2022-09-06T13:30:04.779Z,21.01
2022-09-06T13:32:34.195Z,21.13
2022-09-06T13:35:03.012Z,20.99
2022-09-06T13:37:33.939Z,21.03
2022-09-06T13:40:05.622Z,20.82
2022-09-06T13:42:38.797Z,20.88
2022-09-06T13:45:24.951Z,20.97
2022-09-06T13:48:03.361Z,20.97
2022-09-06T13:50:42.253Z,21.05
2022-09-06T13:53:10.576Z,20.89
2022-09-06T13:55:38.451Z,20.91
2022-09-06T13:58:06.524Z,21.06
2022-09-06T14:00:34.643Z,21.16
2022-09-06T14:03:03.061Z,21.08
2022-09-06T14:05:30.934Z,20.98
2022-09-06T14:07:58.908Z,20.99
2022-09-06T14:10:26.737Z,20.83
2022-09-06T14:12:54.640Z,20.89
2022-09-06T14:15:22.724Z,20.89
2022-09-06T14:17:50.619Z,20.83
2022-09-06T14:20:18.571Z,20.95
2022-09-06T14:22:47.937Z,20.79
2022-09-06T14:25:15.703Z,20.71
2022-09-06T14:27:43.452Z,20.60
2022-09-06T14:30:12.413Z,20.62
2022-09-06T14:32:40.166Z,20.43
2022-09-06T14:35:08.196Z,20.49
2022-09-06T14:37:36.835Z,20.51
2022-09-06T14:40:05.643Z,20.35
2022-09-06T14:42:33.588Z,20.39
2022-09-06T14:45:01.492Z,20.44
2022-09-06T14:47:29.277Z,20.27
2022-09-06T14:49:57.015Z,20.12
2022-09-06T14:52:25.119Z,19.99
2022-09-06T14:54:53.078Z,20.08
2022-09-06T14:57:20.829Z,20.05
2022-09-06T14:59:48.748Z,19.93
2022-09-06T15:02:16.723Z,19.90
2022-09-06T15:04:44.705Z,19.91
2022-09-06T15:07:12.706Z,19.95
2022-09-06T15:09:40.869Z,19.83
2022-09-06T15:12:08.683Z,19.61
2022-09-06T15:14:37.494Z,19.55
2022-09-06T15:17:08.850Z,19.63
2022-09-06T15:19:37.586Z,19.68
2022-09-06T15:22:06.716Z,19.60
2022-09-06T15:24:34.681Z,19.47
2022-09-06T15:27:02.830Z,19.48
2022-09-06T15:29:30.722Z,19.45
2022-09-06T15:31:58.552Z,19.26
2022-09-06T15:34:27.491Z,19.19
2022-09-06T15:36:56.682Z,18.99
2022-09-06T15:39:24.621Z,18.88
2022-09-06T15:41:52.744Z,18.74
2022-09-06T15:44:21.722Z,18.63
2022-09-06T15:46:59.299Z,18.48
2022-09-06T15:49:31.774Z,18.57
2022-09-06T15:52:01.749Z,18.47
2022-09-06T15:54:49.078Z,18.36
2022-09-06T15:57:17.609Z,18.29
2022-09-06T15:59:46.250Z,18.20
2022-09-06T16:02:14.748Z,18.17
2022-09-06T16:04:42.576Z,18.09
2022-09-06T16:07:11.661Z,17.97
2022-09-06T16:09:40.223Z,17.83
2022-09-06T16:12:09.237Z,17.68
2022-09-06T16:14:38.326Z,17.50
2022-09-06T16:17:06.147Z,17.50
2022-09-06T16:19:34.143Z,17.30
2022-09-06T16:22:02.575Z,17.19
2022-09-06T16:24:30.384Z,17.11
2022-09-06T16:26:58.391Z,17.16
2022-09-06T16:29:26.825Z,17.10
2022-09-06T16:31:59.655Z,17.02
2022-09-06T16:34:27.907Z,16.96
2022-09-06T16:36:57.056Z,16.74
2022-09-06T16:39:24.928Z,16.54
2022-09-06T16:41:53.072Z,16.39
2022-09-06T16:44:20.767Z,16.23
2022-09-06T16:46:50.728Z,16.12
2022-09-06T16:49:19.782Z,15.99
2022-09-06T16:51:49.012Z,15.92
2022-09-06T16:54:18.267Z,15.80
2022-09-06T16:56:46.408Z,15.64
2022-09-06T16:59:17.439Z,15.54
2022-09-06T17:01:46.193Z,15.43
2022-09-06T17:04:14.848Z,15.18
2022-09-06T17:06:44.674Z,14.95
2022-09-06T17:09:14.966Z,14.81
2022-09-06T17:11:43.185Z,14.83
2022-09-06T17:14:11.026Z,14.75
2022-09-06T17:16:57.385Z,14.62
2022-09-06T17:19:25.650Z,14.37
2022-09-06T17:21:53.657Z,14.11
2022-09-06T17:24:21.862Z,13.86
2022-09-06T17:26:49.795Z,13.72
2022-09-06T17:29:17.572Z,13.58
2022-09-06T17:31:45.807Z,13.42
2022-09-06T17:34:13.811Z,13.27
2022-09-06T17:36:41.539Z,13.19
2022-09-06T17:39:13.952Z,13.05
2022-09-06T17:41:45.713Z,12.89
2022-09-06T17:44:16.750Z,12.70
2022-09-06T17:47:02.612Z,12.59
2022-09-06T17:49:33.821Z,12.52
2022-09-06T17:52:01.795Z,12.49
2022-09-06T17:54:32.099Z,12.40
2022-09-06T17:56:59.916Z,12.30
2022-09-06T17:59:31.552Z,12.13
2022-09-06T18:02:01.952Z,12.09
2022-09-06T18:04:29.939Z,11.92
2022-09-06T18:06:57.627Z,11.83
2022-09-06T18:09:25.341Z,11.67
2022-09-06T18:11:53.316Z,11.60
2022-09-06T18:14:21.114Z,11.46
2022-09-06T18:16:50.992Z,11.40
2022-09-06T18:19:19.386Z,11.38
2022-09-06T18:21:47.734Z,11.37
2022-09-06T18:24:16.022Z,11.33
2022-09-06T18:26:44.913Z,11.20
2022-09-06T18:29:14.961Z,11.17
2022-09-06T18:31:43.719Z,11.17
2022-09-06T18:34:12.513Z,10.97
2022-09-06T18:36:40.620Z,11.02
2022-09-06T18:39:08.550Z,10.98
2022-09-06T18:42:11.714Z,10.83
2022-09-06T18:44:39.716Z,10.78
2022-09-06T18:47:09.981Z,10.76
2022-09-06T18:49:43.237Z,10.58
2022-09-06T18:52:12.029Z,10.53
2022-09-06T18:54:39.803Z,10.52
2022-09-06T18:57:07.747Z,10.43
2022-09-06T18:59:35.984Z,10.44
2022-09-06T19:02:03.858Z,10.33
2022-09-06T19:04:31.892Z,10.23
2022-09-06T19:07:03.046Z,10.13
2022-09-06T19:09:30.895Z,10.06
2022-09-06T19:11:58.613Z,9.98
2022-09-06T19:14:26.523Z,9.94
2022-09-06T19:16:54.330Z,9.80
2022-09-06T19:19:23.300Z,9.77
2022-09-06T19:21:51.308Z,9.78
2022-09-06T19:24:22.570Z,9.67
2022-09-06T19:26:50.630Z,9.67
2022-09-06T19:29:19.468Z,9.59
2022-09-06T19:31:48.513Z,9.60
2022-09-06T19:34:16.587Z,9.47
2022-09-06T19:36:45.682Z,9.37
2022-09-06T19:39:16.019Z,9.26
2022-09-06T19:41:46.775Z,9.22
2022-09-06T19:44:16.682Z,9.17
2022-09-06T19:46:46.835Z,9.12
2022-09-06T19:49:21.718Z,9.07
2022-09-06T19:51:51.290Z,9.02
2022-09-06T19:54:19.566Z,8.90
2022-09-06T19:56:47.869Z,8.96
2022-09-06T19:59:18.409Z,8.93
2022-09-06T20:01:47.308Z,8.80
2022-09-06T20:04:15.780Z,8.90
2022-09-06T20:06:43.859Z,8.90
2022-09-06T20:09:12.291Z,8.81
2022-09-06T20:11:41.442Z,8.77
2022-09-06T20:14:11.285Z,8.70
2022-09-06T20:16:42.075Z,8.63
2022-09-06T20:19:12.549Z,8.58
2022-09-06T20:21:40.627Z,8.55
2022-09-06T20:24:08.928Z,8.46
2022-09-06T20:26:37.825Z,8.41
2022-09-06T20:29:06.794Z,8.29
2022-09-06T20:31:35.998Z,8.26
2022-09-06T20:34:05.872Z,8.29
2022-09-06T20:36:34.025Z,8.25
2022-09-06T20:39:02.264Z,8.16
2022-09-06T20:41:30.609Z,8.16
2022-09-06T20:43:59.929Z,8.16
2022-09-06T20:46:30.145Z,8.15
2022-09-06T20:49:01.929Z,7.95
2022-09-06T20:51:30.884Z,7.86
2022-09-06T20:54:00.625Z,7.87
2022-09-06T20:56:34.397Z,7.76
2022-09-06T20:59:04.519Z,7.70
2022-09-06T21:01:35.203Z,7.71
2022-09-06T21:04:06.243Z,7.75
2022-09-06T21:06:36.230Z,7.64
2022-09-06T21:09:09.909Z,7.66
2022-09-06T21:11:38.266Z,7.57
2022-09-06T21:14:07.574Z,7.59
2022-09-06T21:16:35.461Z,7.54
2022-09-06T21:19:06.454Z,7.52
2022-09-06T21:21:36.026Z,7.71
2022-09-06T21:24:06.091Z,7.52
2022-09-06T21:26:34.151Z,7.54
2022-09-06T21:29:03.636Z,7.76
2022-09-06T21:31:34.562Z,7.63
2022-09-06T21:34:11.493Z,7.48
2022-09-06T21:36:43.218Z,7.30
2022-09-06T21:39:15.110Z,7.29
2022-09-06T21:41:44.360Z,7.30
2022-09-06T21:44:12.883Z,7.32
2022-09-06T21:46:41.506Z,7.23
2022-09-06T21:49:12.148Z,7.24
2022-09-06T21:51:40.404Z,7.11
2022-09-06T21:54:08.710Z,7.04
2022-09-06T21:56:38.171Z,7.10
2022-09-06T21:59:06.916Z,7.04
2022-09-06T22:01:37.682Z,6.95
2022-09-06T22:04:06.503Z,6.91
2022-09-06T22:06:36.346Z,6.89
2022-09-06T22:09:11.071Z,6.95
2022-09-06T22:11:41.140Z,6.83
2022-09-06T22:14:12.019Z,6.78
2022-09-06T22:16:41.518Z,6.65
2022-09-06T22:19:10.415Z,6.66
2022-09-06T22:21:38.792Z,6.66
2022-09-06T22:24:10.688Z,6.64
2022-09-06T22:26:40.033Z,6.67
2022-09-06T22:29:10.298Z,6.57
2022-09-06T22:31:39.056Z,6.66
2022-09-06T22:34:07.710Z,6.56
2022-09-06T22:36:35.872Z,6.52
2022-09-06T22:39:03.880Z,6.42
2022-09-06T22:41:33.063Z,6.38
2022-09-06T22:44:02.603Z,6.39
2022-09-06T22:46:30.987Z,6.46
2022-09-06T22:48:59.206Z,6.36
2022-09-06T22:51:27.350Z,6.38
2022-09-06T22:53:55.131Z,6.42
2022-09-06T22:56:23.447Z,6.42
2022-09-06T22:58:51.368Z,6.44
2022-09-06T23:01:19.130Z,6.40
2022-09-06T23:03:48.077Z,6.27
2022-09-06T23:06:16.485Z,6.27
2022-09-06T23:08:44.276Z,6.14
2022-09-06T23:11:17.285Z,6.03
2022-09-06T23:13:47.162Z,5.96
2022-09-06T23:16:18.754Z,5.88
2022-09-06T23:18:47.897Z,5.90
2022-09-06T23:21:18.290Z,5.90
2022-09-06T23:23:47.628Z,5.88
2022-09-06T23:26:21.901Z,5.86
2022-09-06T23:28:56.893Z,5.75
2022-09-06T23:31:27.965Z,5.71
2022-09-06T23:33:57.447Z,5.65
2022-09-06T23:36:26.257Z,5.54
2022-09-06T23:38:54.814Z,5.55
2022-09-06T23:41:23.631Z,5.48
2022-09-06T23:43:51.631Z,5.57
2022-09-06T23:46:20.116Z,5.51
2022-09-06T23:48:47.979Z,5.53
2022-09-06T23:51:15.730Z,5.56
2022-09-06T23:53:43.829Z,5.57
2022-09-06T23:56:12.340Z,5.66
2022-09-06T23:58:40.331Z,5.49
